Time;durP1;ratioP1;P1;durP2;ratioP2;P2;SDS_P1;SDS_P2;PMS_P1;PMS_P2;Temp;Humidity;BMP_temperature;BMP_pressure;BME280_temperature;BME280_humidity;BME280_pressure;Samples;Min_cycle;Max_cycle;Signal;HPM_P1;HPM_P2
2023/03/18 00:00:31;;;;;;;6.18;3.70;;;11.70;99.90;;;;;;4983901;28;20058;-51
2023/03/18 00:02:57;;;;;;;7.85;4.00;;;11.60;99.90;;;;;;4987413;28;20050;-49
2023/03/18 00:05:23;;;;;;;6.60;3.95;;;11.60;99.90;;;;;;4982045;28;20046;-51
2023/03/18 00:07:49;;;;;;;6.93;3.80;;;11.60;99.90;;;;;;4998253;28;20205;-50
2023/03/18 00:10:15;;;;;;;7.95;3.58;;;11.60;99.90;;;;;;4986574;28;20050;-50
2023/03/18 00:12:42;;;;;;;9.52;3.92;;;11.60;99.90;;;;;;4984292;28;20113;-50
2023/03/18 00:15:10;;;;;;;6.78;3.63;;;11.60;99.90;;;;;;4984778;28;20104;-51
2023/03/18 00:17:38;;;;;;;6.88;3.72;;;11.60;99.90;;;;;;4984852;28;20096;-49
2023/03/18 00:20:05;;;;;;;8.13;4.00;;;11.60;99.90;;;;;;4989403;28;20038;-50
2023/03/18 00:22:33;;;;;;;7.47;3.60;;;11.60;99.90;;;;;;4988124;28;20034;-51
2023/03/18 00:24:59;;;;;;;6.43;3.75;;;11.60;99.90;;;;;;4986578;28;20046;-50
2023/03/18 00:27:25;;;;;;;6.13;3.80;;;11.60;99.90;;;;;;4987360;28;20046;-52
2023/03/18 00:29:50;;;;;;;8.48;4.03;;;11.50;99.90;;;;;;4986294;28;20050;-52
2023/03/18 00:32:16;;;;;;;7.85;4.25;;;11.60;99.90;;;;;;4987785;28;20392;-48
2023/03/18 00:34:42;;;;;;;8.85;4.00;;;11.50;99.90;;;;;;4988607;28;20496;-49
2023/03/18 00:37:09;;;;;;;7.63;4.07;;;11.50;99.90;;;;;;4988406;28;20405;-50
2023/03/18 00:39:36;;;;;;;8.93;4.43;;;11.50;99.90;;;;;;4987730;28;20467;-51
2023/03/18 00:42:09;;;;;;;7.33;4.40;;;11.50;99.90;;;;;;4987468;28;20042;-52
2023/03/18 00:44:34;;;;;;;6.65;4.68;;;11.50;99.90;;;;;;4987618;28;20504;-53
2023/03/18 00:47:00;;;;;;;8.68;4.65;;;11.40;99.90;;;;;;4988132;28;20145;-50
2023/03/18 00:49:26;;;;;;;8.02;4.03;;;11.50;99.90;;;;;;4986017;28;20046;-52
2023/03/18 00:51:52;;;;;;;8.02;4.03;;;11.50;99.90;;;;;;4983947;28;20043;-49
2023/03/18 00:54:19;;;;;;;6.75;4.05;;;11.40;99.90;;;;;;5002104;28;20065;-49
2023/03/18 00:56:45;;;;;;;7.10;4.45;;;11.40;99.90;;;;;;4987409;28;20050;-52
2023/03/18 00:59:12;;;;;;;7.72;4.35;;;11.30;99.90;;;;;;4980424;28;20053;-51
2023/03/18 01:01:38;;;;;;;6.90;4.40;;;11.30;99.90;;;;;;4957805;28;20486;-50
2023/03/18 01:04:05;;;;;;;6.82;4.20;;;11.30;99.90;;;;;;4970974;28;20093;-49
2023/03/18 01:06:32;;;;;;;8.05;4.28;;;11.20;99.90;;;;;;4962133;28;20043;-53
2023/03/18 01:09:00;;;;;;;12.02;4.32;;;11.20;99.90;;;;;;4959065;28;20051;-50
2023/03/18 01:11:26;;;;;;;7.32;4.75;;;11.20;99.90;;;;;;4967250;28;20050;-49
2023/03/18 01:13:52;;;;;;;7.18;4.22;;;11.10;99.90;;;;;;4959553;28;20122;-51
2023/03/18 01:16:19;;;;;;;7.97;4.32;;;11.10;99.90;;;;;;4962647;28;20046;-51
2023/03/18 01:18:45;;;;;;;7.30;4.23;;;11.10;99.90;;;;;;4964850;28;20081;-50
2023/03/18 01:21:12;;;;;;;9.23;4.65;;;11.10;99.90;;;;;;4967184;28;20326;-49
2023/03/18 01:23:39;;;;;;;6.97;4.43;;;11.10;99.90;;;;;;4967360;28;20043;-52
2023/03/18 01:26:05;;;;;;;5.72;4.13;;;11.10;99.90;;;;;;4967178;28;20501;-49
2023/03/18 01:28:32;;;;;;;7.47;4.45;;;11.00;99.90;;;;;;4967102;28;20058;-48
2023/03/18 01:30:58;;;;;;;6.38;4.50;;;11.00;99.90;;;;;;4967123;28;20101;-52
2023/03/18 01:33:24;;;;;;;8.15;4.38;;;11.00;99.90;;;;;;4967309;28;20058;-52
2023/03/18 01:35:55;;;;;;;7.35;4.70;;;11.00;99.90;;;;;;4965094;28;20097;-50
2023/03/18 01:38:22;;;;;;;6.47;4.65;;;11.00;99.90;;;;;;4966565;28;20196;-50
2023/03/18 01:40:49;;;;;;;7.30;4.77;;;11.00;99.90;;;;;;4967168;28;20124;-50
2023/03/18 01:43:25;;;;;;;10.18;4.45;;;11.00;99.90;;;;;;4967009;28;20159;-50
2023/03/18 01:45:54;;;;;;;6.47;4.35;;;10.90;99.90;;;;;;4967214;28;20109;-49
2023/03/18 01:48:22;;;;;;;7.05;4.50;;;10.80;99.90;;;;;;4964901;28;20508;-53
2023/03/18 01:51:02;;;;;;;9.68;4.57;;;10.80;99.90;;;;;;4974073;28;20050;-50
2023/03/18 01:53:34;;;;;;;6.50;4.85;;;10.80;99.90;;;;;;4975153;28;20133;-49
2023/03/18 01:56:02;;;;;;;11.57;5.20;;;10.80;99.90;;;;;;4973703;28;20078;-53
2023/03/18 01:58:33;;;;;;;8.63;4.87;;;10.80;99.90;;;;;;4974284;28;20122;-48
2023/03/18 02:01:05;;;;;;;10.00;4.82;;;10.70;99.90;;;;;;4994715;28;20351;-48
2023/03/18 02:03:33;;;;;;;9.82;4.80;;;10.70;99.90;;;;;;4983094;28;20078;-51
2023/03/18 02:05:58;;;;;;;5.15;4.47;;;10.70;99.90;;;;;;5000425;28;20041;-52
2023/03/18 02:08:24;;;;;;;8.00;4.70;;;10.70;99.90;;;;;;4988058;28;20262;-50
2023/03/18 02:10:50;;;;;;;9.40;4.97;;;10.60;99.90;;;;;;4984828;28;20097;-49
2023/03/18 02:13:17;;;;;;;8.27;5.03;;;10.60;99.90;;;;;;4987372;28;20120;-51
2023/03/18 02:15:55;;;;;;;7.85;4.75;;;10.60;99.90;;;;;;4986863;28;20086;-51
2023/03/18 02:18:27;;;;;;;7.97;4.82;;;10.50;99.90;;;;;;4982497;28;20118;-50
2023/03/18 02:21:31;;;;;;;8.15;4.90;;;10.50;99.90;;;;;;4992558;28;20459;-53
2023/03/18 02:24:29;;;;;;;9.15;4.53;;;10.40;99.90;;;;;;4984716;28;20129;-52
2023/03/18 02:27:12;;;;;;;7.72;5.10;;;10.40;99.90;;;;;;4981097;28;20097;-52
2023/03/18 02:29:41;;;;;;;8.88;5.35;;;10.40;99.90;;;;;;4981290;28;20211;-49
2023/03/18 02:32:07;;;;;;;7.80;5.22;;;10.40;99.90;;;;;;4981067;28;20038;-50
2023/03/18 02:34:35;;;;;;;7.10;5.45;;;10.40;99.90;;;;;;4997874;28;20044;-49
2023/03/18 02:37:01;;;;;;;12.15;5.65;;;10.40;99.90;;;;;;4986756;28;20039;-50
2023/03/18 02:39:29;;;;;;;9.40;5.53;;;10.40;99.90;;;;;;4987534;28;20628;-50
2023/03/18 02:41:54;;;;;;;9.85;5.95;;;10.40;99.90;;;;;;5006997;28;20138;-50
2023/03/18 02:44:21;;;;;;;11.02;5.72;;;10.40;99.90;;;;;;5004881;28;20550;-49
2023/03/18 02:47:02;;;;;;;7.43;6.00;;;10.40;99.90;;;;;;4985779;28;20642;-49
2023/03/18 02:49:29;;;;;;;7.88;5.85;;;10.40;99.90;;;;;;4985893;28;20042;-51
2023/03/18 02:51:56;;;;;;;9.45;5.60;;;10.40;99.90;;;;;;4985443;28;20125;-50
2023/03/18 02:54:25;;;;;;;8.60;5.90;;;10.40;99.90;;;;;;4985437;28;20050;-49
2023/03/18 02:56:51;;;;;;;10.55;6.03;;;10.30;99.90;;;;;;4985708;28;20081;-52
2023/03/18 02:59:18;;;;;;;9.23;5.72;;;10.30;99.90;;;;;;4985827;28;20081;-52
2023/03/18 03:01:46;;;;;;;10.98;6.10;;;10.30;99.90;;;;;;4984679;28;20050;-52
2023/03/18 03:04:13;;;;;;;7.55;5.95;;;10.30;99.90;;;;;;4984940;28;20142;-49
2023/03/18 03:06:40;;;;;;;9.48;6.30;;;10.30;99.90;;;;;;4984749;28;20050;-49
2023/03/18 03:09:07;;;;;;;7.13;6.18;;;10.30;99.90;;;;;;4987305;28;20049;-51
2023/03/18 03:11:34;;;;;;;8.27;5.90;;;10.20;99.90;;;;;;4984031;28;20078;-49
2023/03/18 03:13:59;;;;;;;9.25;5.93;;;10.20;99.90;;;;;;4984961;28;20547;-51
2023/03/18 03:16:25;;;;;;;8.80;5.75;;;10.20;99.90;;;;;;4999709;28;20040;-51
2023/03/18 03:18:51;;;;;;;8.95;5.82;;;10.20;99.90;;;;;;4985548;28;20061;-51
2023/03/18 03:21:17;;;;;;;8.10;6.30;;;10.20;99.90;;;;;;4986191;28;20050;-50
2023/03/18 03:23:44;;;;;;;11.70;6.10;;;10.20;99.90;;;;;;4980169;28;20233;-52
2023/03/18 03:26:10;;;;;;;12.70;6.70;;;10.20;99.90;;;;;;4982067;28;20050;-53
2023/03/18 03:28:36;;;;;;;10.63;6.18;;;10.30;99.90;;;;;;4984618;28;20054;-50
2023/03/18 03:31:02;;;;;;;12.27;6.63;;;10.30;99.90;;;;;;4984075;28;20038;-51
2023/03/18 03:33:28;;;;;;;11.40;6.68;;;10.30;99.90;;;;;;4985607;28;20041;-53
2023/03/18 03:35:54;;;;;;;7.35;6.65;;;10.30;99.90;;;;;;4986436;28;20042;-50
2023/03/18 03:38:21;;;;;;;10.77;6.53;;;10.30;99.90;;;;;;4985973;28;20552;-49
2023/03/18 03:40:47;;;;;;;10.23;6.87;;;10.20;99.90;;;;;;4984657;28;20050;-49
2023/03/18 03:43:14;;;;;;;11.90;7.43;;;10.20;99.90;;;;;;4987220;28;20293;-48
2023/03/18 03:45:41;;;;;;;10.30;7.45;;;10.20;99.90;;;;;;4986501;28;20564;-50
2023/03/18 03:48:07;;;;;;;11.00;7.05;;;10.20;99.90;;;;;;4980800;28;20043;-53
2023/03/18 03:50:33;;;;;;;11.13;7.60;;;10.10;99.90;;;;;;4989223;28;20086;-50
2023/03/18 03:52:59;;;;;;;10.85;7.57;;;10.00;99.90;;;;;;4987321;28;20058;-51
2023/03/18 03:55:24;;;;;;;9.07;7.07;;;10.00;99.90;;;;;;4991036;28;20052;-51
2023/03/18 03:57:50;;;;;;;10.32;6.88;;;9.90;99.90;;;;;;5008581;28;20120;-53
2023/03/18 04:00:19;;;;;;;13.88;7.97;;;9.90;99.90;;;;;;5012799;28;20065;-53
2023/03/18 04:02:46;;;;;;;12.15;7.35;;;9.80;99.90;;;;;;4993918;28;20104;-49
2023/03/18 04:05:15;;;;;;;12.55;7.63;;;9.70;99.90;;;;;;4987162;28;20054;-49
2023/03/18 04:07:41;;;;;;;10.93;7.55;;;9.70;99.90;;;;;;4989416;28;20037;-49
2023/03/18 04:10:09;;;;;;;11.70;7.50;;;9.70;99.90;;;;;;4989426;28;20046;-48
2023/03/18 04:12:36;;;;;;;10.00;8.00;;;9.70;99.90;;;;;;4988444;28;20137;-53
2023/03/18 04:15:02;;;;;;;14.07;8.20;;;9.70;99.90;;;;;;4987801;28;20046;-50
2023/03/18 04:17:28;;;;;;;13.35;8.52;;;9.60;99.90;;;;;;5004002;28;20038;-52
2023/03/18 04:19:54;;;;;;;12.02;8.35;;;9.70;99.90;;;;;;4986729;28;20137;-50
2023/03/18 04:22:20;;;;;;;11.50;8.10;;;9.60;99.90;;;;;;4986515;28;20137;-53
2023/03/18 04:24:46;;;;;;;14.23;8.45;;;9.70;99.90;;;;;;4986984;28;20437;-51
2023/03/18 04:27:11;;;;;;;11.70;8.80;;;9.60;99.90;;;;;;4979718;28;20038;-48
2023/03/18 04:29:37;;;;;;;13.95;8.88;;;9.60;99.90;;;;;;4980625;28;20050;-49
2023/03/18 04:32:03;;;;;;;11.68;8.68;;;9.70;99.90;;;;;;4981104;28;20307;-48
2023/03/18 04:34:28;;;;;;;11.55;8.70;;;9.70;99.90;;;;;;4982698;28;20043;-50
2023/03/18 04:36:54;;;;;;;12.07;8.65;;;9.60;99.90;;;;;;4981469;28;20050;-49
2023/03/18 04:39:21;;;;;;;12.05;8.32;;;9.70;99.90;;;;;;4975771;28;20129;-49
2023/03/18 04:41:47;;;;;;;12.48;8.65;;;9.60;99.90;;;;;;4978305;28;20098;-48
2023/03/18 04:44:13;;;;;;;12.20;8.80;;;9.60;99.90;;;;;;4973706;28;20042;-51
2023/03/18 04:46:39;;;;;;;11.52;9.18;;;9.60;99.90;;;;;;4973703;28;20047;-53
2023/03/18 04:49:05;;;;;;;9.75;8.32;;;9.60;99.90;;;;;;4976569;28;20515;-50
2023/03/18 04:51:30;;;;;;;13.90;8.90;;;9.70;99.90;;;;;;4981784;28;20070;-50
2023/03/18 04:53:56;;;;;;;13.93;8.88;;;9.70;99.90;;;;;;4978943;28;20080;-51
2023/03/18 04:56:22;;;;;;;10.98;8.05;;;9.70;99.90;;;;;;4978028;28;20042;-52
2023/03/18 04:58:48;;;;;;;11.15;7.85;;;9.70;99.90;;;;;;4974621;28;20093;-48
2023/03/18 05:01:14;;;;;;;12.38;8.63;;;9.70;99.90;;;;;;4972309;28;20497;-48
2023/03/18 05:03:40;;;;;;;11.70;8.30;;;9.80;99.90;;;;;;4982111;28;20118;-49
2023/03/18 05:06:07;;;;;;;12.32;8.95;;;9.80;99.90;;;;;;4974647;28;20047;-49
2023/03/18 05:08:33;;;;;;;13.00;8.75;;;9.80;99.90;;;;;;4978231;28;20457;-50
2023/03/18 05:10:59;;;;;;;12.82;8.40;;;9.80;99.90;;;;;;4978167;28;20050;-48
2023/03/18 05:13:24;;;;;;;14.50;9.27;;;9.80;99.90;;;;;;4975573;28;20046;-49
2023/03/18 05:15:50;;;;;;;12.90;9.10;;;9.90;99.90;;;;;;4975973;28;20129;-49
2023/03/18 05:18:16;;;;;;;12.80;8.60;;;9.90;99.90;;;;;;4978302;28;20358;-49
2023/03/18 05:20:41;;;;;;;14.98;8.82;;;9.90;99.90;;;;;;4978194;28;20096;-48
2023/03/18 05:23:07;;;;;;;12.45;8.90;;;9.90;99.90;;;;;;4976388;28;20054;-50
2023/03/18 05:25:33;;;;;;;14.35;9.48;;;9.90;99.90;;;;;;4976853;28;20053;-49
2023/03/18 05:27:59;;;;;;;13.77;9.40;;;9.90;99.90;;;;;;4976329;28;20559;-50
2023/03/18 05:30:26;;;;;;;11.98;9.23;;;9.80;99.90;;;;;;4981587;28;20188;-48
2023/03/18 05:32:51;;;;;;;12.13;9.20;;;9.80;99.90;;;;;;4977027;28;20492;-52
2023/03/18 05:35:18;;;;;;;12.10;9.15;;;9.90;99.90;;;;;;4995252;28;20069;-48
2023/03/18 05:37:44;;;;;;;14.82;9.05;;;9.80;99.90;;;;;;4981758;28;20045;-49
2023/03/18 05:40:11;;;;;;;13.82;9.88;;;9.80;99.90;;;;;;4980061;28;20034;-50
2023/03/18 05:42:39;;;;;;;12.52;9.25;;;9.90;99.90;;;;;;4979711;28;20113;-53
2023/03/18 05:45:06;;;;;;;;;;;9.90;99.90;;;;;;4984778;28;20169;-49
2023/03/18 05:47:32;;;;;;;14.30;9.65;;;9.90;99.90;;;;;;4977428;28;20001;-49
2023/03/18 05:49:57;;;;;;;14.60;9.52;;;9.90;99.90;;;;;;4978402;28;20510;-49
2023/03/18 05:52:23;;;;;;;11.65;9.43;;;10.00;99.90;;;;;;4976596;28;20519;-48
2023/03/18 05:54:49;;;;;;;16.85;9.98;;;9.90;99.90;;;;;;4977480;28;20049;-51
2023/03/18 05:57:15;;;;;;;14.48;10.65;;;10.00;99.90;;;;;;4982701;28;20038;-48
2023/03/18 05:59:40;;;;;;;14.90;10.50;;;10.00;99.90;;;;;;4981954;28;20091;-50
2023/03/18 06:02:06;;;;;;;16.10;10.55;;;10.00;99.90;;;;;;4984884;28;20082;-49
2023/03/18 06:04:32;;;;;;;18.77;10.73;;;9.90;99.90;;;;;;4979968;28;20045;-49
2023/03/18 06:06:58;;;;;;;14.25;10.60;;;9.90;99.90;;;;;;4981949;28;20717;-49
2023/03/18 06:09:24;;;;;;;14.75;10.43;;;9.90;99.90;;;;;;4977846;28;20049;-52
2023/03/18 06:11:51;;;;;;;15.73;10.80;;;9.90;99.90;;;;;;4975434;28;20047;-49
2023/03/18 06:14:17;;;;;;;18.35;10.77;;;9.90;99.90;;;;;;4979927;28;20031;-51
2023/03/18 06:16:44;;;;;;;15.68;11.27;;;9.90;99.90;;;;;;4984044;28;20038;-48
2023/03/18 06:19:10;;;;;;;16.35;12.80;;;9.90;99.90;;;;;;4981965;28;20523;-48
2023/03/18 06:21:37;;;;;;;19.55;12.20;;;9.90;99.90;;;;;;4983519;28;20453;-49
2023/03/18 06:24:03;;;;;;;18.02;12.15;;;9.90;99.90;;;;;;4992984;28;20058;-49
2023/03/18 06:26:29;;;;;;;15.25;12.05;;;10.00;99.90;;;;;;4993350;28;20416;-48
2023/03/18 06:28:57;;;;;;;19.15;13.07;;;10.00;99.90;;;;;;4993594;28;20049;-50
2023/03/18 06:31:22;;;;;;;18.63;12.75;;;10.00;99.90;;;;;;4993884;28;20104;-49
2023/03/18 06:33:48;;;;;;;17.83;12.88;;;10.00;99.90;;;;;;4994114;28;20047;-48
2023/03/18 06:36:15;;;;;;;15.40;12.77;;;10.10;99.90;;;;;;4973437;28;20549;-49
2023/03/18 06:38:41;;;;;;;17.88;13.02;;;10.10;99.90;;;;;;4994574;28;20060;-49
2023/03/18 06:41:07;;;;;;;17.95;13.35;;;10.20;99.90;;;;;;4996837;28;20493;-50
2023/03/18 06:43:33;;;;;;;19.55;13.75;;;10.30;99.90;;;;;;4981304;28;20101;-54
2023/03/18 06:45:59;;;;;;;21.75;14.75;;;10.30;99.90;;;;;;4981306;28;20042;-49
2023/03/18 06:48:25;;;;;;;20.63;13.95;;;10.30;99.90;;;;;;4982247;28;20129;-49
2023/03/18 06:50:51;;;;;;;19.20;13.70;;;10.40;99.90;;;;;;4985590;28;20046;-48
2023/03/18 06:53:16;;;;;;;18.95;14.10;;;10.40;99.90;;;;;;4985650;28;20049;-49
2023/03/18 06:55:42;;;;;;;22.67;14.70;;;10.40;99.90;;;;;;4985511;28;20085;-49
2023/03/18 06:58:09;;;;;;;21.88;16.05;;;10.40;99.90;;;;;;5000059;28;20042;-49
2023/03/18 07:00:35;;;;;;;22.65;15.85;;;10.40;99.90;;;;;;4985294;28;20053;-52
2023/03/18 07:03:00;;;;;;;19.02;16.50;;;10.50;99.90;;;;;;4986321;28;20057;-49
2023/03/18 07:05:27;;;;;;;23.10;16.45;;;10.40;99.90;;;;;;4983617;28;20038;-50
2023/03/18 07:07:53;;;;;;;23.77;16.95;;;10.40;99.90;;;;;;4986351;28;20476;-49
2023/03/18 07:10:26;;;;;;;24.02;16.00;;;10.50;99.90;;;;;;4985010;28;21659;-49
2023/03/18 07:12:51;;;;;;;22.77;15.88;;;10.60;99.90;;;;;;4984984;28;20049;-50
2023/03/18 07:15:21;;;;;;;22.00;15.95;;;10.50;99.90;;;;;;4985867;28;20038;-54
2023/03/18 07:17:47;;;;;;;21.30;15.70;;;10.50;99.90;;;;;;4985032;28;20447;-50
2023/03/18 07:20:14;;;;;;;23.27;17.13;;;10.50;99.90;;;;;;4984528;28;20054;-51
2023/03/18 07:22:41;;;;;;;21.83;17.38;;;10.50;99.90;;;;;;5002151;28;20041;-50
2023/03/18 07:25:07;;;;;;;26.08;17.20;;;10.50;99.90;;;;;;4987349;28;20042;-49
2023/03/18 07:27:33;;;;;;;26.60;17.95;;;10.50;99.90;;;;;;4984670;28;20139;-50
2023/03/18 07:30:00;;;;;;;24.67;17.40;;;10.50;99.90;;;;;;4987550;28;20038;-52
2023/03/18 07:32:26;;;;;;;22.13;18.27;;;10.50;99.90;;;;;;4980657;28;20050;-52
2023/03/18 07:34:52;;;;;;;23.52;19.63;;;10.50;99.90;;;;;;5007221;28;20043;-50
2023/03/18 07:37:17;;;;;;;23.27;19.00;;;10.50;99.90;;;;;;5004227;28;20050;-53
2023/03/18 07:39:43;;;;;;;26.05;20.15;;;10.50;99.90;;;;;;4985093;28;20111;-50
2023/03/18 07:42:09;;;;;;;23.25;18.38;;;10.50;99.90;;;;;;4985283;28;20041;-51
2023/03/18 07:44:36;;;;;;;27.77;19.67;;;10.50;99.90;;;;;;4984971;28;20030;-50
2023/03/18 07:47:03;;;;;;;32.25;20.70;;;10.60;99.90;;;;;;4984923;28;20177;-50
2023/03/18 07:49:30;;;;;;;26.10;19.50;;;10.60;99.90;;;;;;4996643;28;20124;-51
2023/03/18 07:51:56;;;;;;;25.42;20.85;;;10.60;99.90;;;;;;4983833;28;20096;-50
2023/03/18 07:54:23;;;;;;;25.30;20.33;;;10.70;99.90;;;;;;4984747;28;20042;-52
2023/03/18 07:56:52;;;;;;;28.30;21.35;;;10.80;99.90;;;;;;4988993;28;20045;-50
2023/03/18 07:59:18;;;;;;;29.48;21.38;;;11.00;99.90;;;;;;4995017;28;20406;-51
2023/03/18 08:01:43;;;;;;;27.83;20.23;;;11.00;99.90;;;;;;4993111;28;20050;-50
2023/03/18 08:04:10;;;;;;;26.40;21.38;;;11.00;99.90;;;;;;4992601;28;20050;-52
2023/03/18 08:06:36;;;;;;;22.98;19.80;;;11.00;99.90;;;;;;4994254;28;20177;-54
2023/03/18 08:09:03;;;;;;;27.92;20.17;;;11.00;99.90;;;;;;4984688;28;20437;-52
2023/03/18 08:11:29;;;;;;;24.38;19.88;;;11.10;99.90;;;;;;4984351;28;20060;-53
2023/03/18 08:13:55;;;;;;;31.65;21.83;;;11.10;99.90;;;;;;4999605;28;20147;-52
2023/03/18 08:16:21;;;;;;;27.27;21.23;;;11.20;99.90;;;;;;4983912;28;20077;-54
2023/03/18 08:18:47;;;;;;;25.75;21.13;;;11.30;99.90;;;;;;4981738;28;20726;-49
2023/03/18 08:21:13;;;;;;;28.38;21.75;;;11.40;99.90;;;;;;5000063;28;20052;-49
2023/03/18 08:23:38;;;;;;;28.50;23.33;;;11.60;99.90;;;;;;4985266;28;20125;-49
2023/03/18 08:26:04;;;;;;;32.15;23.88;;;11.70;99.90;;;;;;4985155;28;20038;-50
2023/03/18 08:28:30;;;;;;;31.80;24.83;;;11.90;99.90;;;;;;4988250;28;20039;-50
2023/03/18 08:30:57;;;;;;;28.00;22.58;;;12.00;99.90;;;;;;4999874;28;20058;-51
2023/03/18 08:33:28;;;;;;;27.15;22.80;;;12.20;99.90;;;;;;4982428;28;20046;-51
2023/03/18 08:35:57;;;;;;;27.67;21.92;;;12.30;99.90;;;;;;4981763;28;20133;-51
2023/03/18 08:38:24;;;;;;;25.77;22.20;;;12.30;99.90;;;;;;4981692;28;20413;-51
2023/03/18 08:40:49;;;;;;;27.52;22.25;;;12.40;99.90;;;;;;4998684;28;20098;-50
2023/03/18 08:43:15;;;;;;;34.13;22.92;;;12.60;99.90;;;;;;4987885;28;20035;-49
2023/03/18 08:45:42;;;;;;;26.25;23.02;;;;;;;;;;4988044;28;20066;-50
2023/03/18 08:48:08;;;;;;;27.75;21.60;;;13.00;99.90;;;;;;4987989;28;20038;-51
2023/03/18 08:50:34;;;;;;;27.20;21.02;;;13.10;99.90;;;;;;4969416;28;20136;-52
2023/03/18 08:53:01;;;;;;;25.05;19.73;;;13.30;99.90;;;;;;4986105;28;20078;-52
2023/03/18 08:55:29;;;;;;;22.20;19.70;;;13.40;99.90;;;;;;4986776;28;20065;-51
2023/03/18 08:57:56;;;;;;;23.48;19.25;;;13.50;99.90;;;;;;5004025;28;20038;-50
2023/03/18 09:00:24;;;;;;;22.52;19.35;;;13.60;99.90;;;;;;4982740;28;20058;-54
2023/03/18 09:02:50;;;;;;;24.52;19.55;;;13.70;99.90;;;;;;4980783;28;20448;-51
2023/03/18 09:05:16;;;;;;;21.13;18.73;;;13.70;99.90;;;;;;4981009;28;20140;-50
2023/03/18 09:07:42;;;;;;;22.75;19.00;;;13.90;99.90;;;;;;4983929;28;20058;-51
2023/03/18 09:10:11;;;;;;;24.08;17.60;;;14.00;99.90;;;;;;4980632;28;20042;-51
2023/03/18 09:12:38;;;;;;;18.92;16.90;;;14.00;99.90;;;;;;4980524;28;20057;-55
2023/03/18 09:15:05;;;;;;;23.65;17.95;;;14.00;99.90;;;;;;4981561;28;20053;-52
2023/03/18 09:17:30;;;;;;;19.08;16.67;;;14.10;99.90;;;;;;4979611;28;20042;-54
2023/03/18 09:19:56;;;;;;;18.15;16.20;;;14.20;99.90;;;;;;4978170;28;20049;-52
2023/03/18 09:22:22;;;;;;;18.50;16.52;;;14.20;99.90;;;;;;4975659;28;20042;-51
2023/03/18 09:24:48;;;;;;;17.88;15.60;;;14.30;99.90;;;;;;4990568;28;20043;-50
2023/03/18 09:27:14;;;;;;;16.48;14.82;;;14.30;99.90;;;;;;4981184;28;20035;-55
2023/03/18 09:29:40;;;;;;;18.55;14.93;;;14.30;99.90;;;;;;4999135;28;20053;-50
2023/03/18 09:32:07;;;;;;;17.42;15.38;;;14.50;99.90;;;;;;4982076;28;20049;-54
2023/03/18 09:34:32;;;;;;;16.85;15.15;;;14.90;99.90;;;;;;4979239;28;20500;-54
2023/03/18 09:36:58;;;;;;;15.90;14.30;;;15.10;99.90;;;;;;4983901;28;20130;-51
2023/03/18 09:39:24;;;;;;;15.43;13.82;;;15.20;99.90;;;;;;4986386;28;20049;-53
2023/03/18 09:42:12;;;;;;;16.52;12.90;;;15.20;99.90;;;;;;4983724;28;20125;-53
2023/03/18 09:44:38;;;;;;;16.35;12.80;;;15.20;99.90;;;;;;4983316;28;20076;-55
2023/03/18 09:47:14;;;;;;;13.13;11.82;;;15.50;99.90;;;;;;4975884;28;20046;-52
2023/03/18 09:50:03;;;;;;;15.13;12.80;;;15.60;99.90;;;;;;4987064;28;20056;-53
2023/03/18 09:52:34;;;;;;;13.13;11.70;;;15.60;99.90;;;;;;4990045;28;20368;-51
2023/03/18 09:55:34;;;;;;;15.20;11.25;;;15.50;99.90;;;;;;4991566;28;20053;-50
2023/03/18 09:58:02;;;;;;;12.52;10.82;;;15.40;99.90;;;;;;4991539;28;20100;-51
2023/03/18 10:00:35;;;;;;;13.07;11.77;;;15.40;99.90;;;;;;4983620;28;20141;-52
2023/03/18 10:03:05;;;;;;;13.90;12.00;;;15.20;99.90;;;;;;4985426;28;20106;-53
2023/03/18 10:05:34;;;;;;;12.45;10.77;;;15.00;99.90;;;;;;4988558;28;20082;-55
2023/03/18 10:08:22;;;;;;;12.20;10.20;;;15.00;99.90;;;;;;4988217;28;20124;-52
2023/03/18 10:10:48;;;;;;;10.80;9.80;;;14.80;99.90;;;;;;4985151;28;20049;-51
2023/03/18 10:13:32;;;;;;;11.65;10.07;;;14.80;99.90;;;;;;4986804;28;20034;-51
2023/03/18 10:16:03;;;;;;;11.27;10.18;;;14.80;99.90;;;;;;4983373;28;20105;-50
2023/03/18 10:18:34;;;;;;;11.13;10.02;;;14.80;99.90;;;;;;4984748;28;20483;-51
2023/03/18 10:21:17;;;;;;;10.93;9.80;;;14.70;99.90;;;;;;4986936;28;20046;-51
2023/03/18 10:24:00;;;;;;;11.95;10.60;;;14.60;99.90;;;;;;4986772;28;20042;-53
2023/03/18 10:26:40;;;;;;;13.40;11.15;;;14.60;99.90;;;;;;4988301;28;20050;-51
2023/03/18 10:29:28;;;;;;;13.25;11.93;;;14.80;99.90;;;;;;4988947;28;20393;-53
2023/03/18 10:32:05;;;;;;;12.57;11.05;;;14.80;99.90;;;;;;4981816;28;20057;-52
2023/03/18 10:34:58;;;;;;;12.70;11.45;;;14.90;99.90;;;;;;4986304;28;20046;-52
2023/03/18 10:37:50;;;;;;;13.27;11.88;;;14.90;99.90;;;;;;4982331;28;20464;-52
2023/03/18 10:40:18;;;;;;;12.93;11.65;;;15.00;99.90;;;;;;4990689;28;20518;-51
2023/03/18 10:42:44;;;;;;;;;;;15.10;99.90;;;;;;4986797;28;20042;-50
2023/03/18 10:45:19;;;;;;;13.10;11.80;;;15.30;99.90;;;;;;4983706;28;20364;-51
2023/03/18 10:48:13;;;;;;;13.73;12.32;;;15.60;99.90;;;;;;4984110;28;20038;-50
2023/03/18 10:50:51;;;;;;;13.30;11.88;;;16.10;99.90;;;;;;4981649;28;20666;-51
2023/03/18 10:53:28;;;;;;;13.07;11.88;;;16.70;99.90;;;;;;4986815;28;20100;-51
2023/03/18 10:55:57;;;;;;;;;;;16.80;99.90;;;;;;4986706;28;20038;-50
2023/03/18 10:58:23;;;;;;;14.18;12.77;;;17.10;99.90;;;;;;4984833;28;21420;-53
2023/03/18 11:00:50;;;;;;;12.68;10.68;;;17.50;99.90;;;;;;4987519;28;20061;-51
2023/03/18 11:03:40;;;;;;;11.68;10.52;;;17.60;99.90;;;;;;4985922;28;20038;-50
2023/03/18 11:06:14;;;;;;;11.18;9.82;;;17.80;99.90;;;;;;4985775;28;20050;-54
2023/03/18 11:08:40;;;;;;;10.70;9.60;;;18.00;99.90;;;;;;4985119;28;20043;-50
2023/03/18 11:11:20;;;;;;;10.23;9.23;;;18.30;99.90;;;;;;4985159;28;20049;-53
2023/03/18 11:13:51;;;;;;;10.80;8.93;;;18.30;99.90;;;;;;4984278;28;20046;-50
2023/03/18 11:16:33;;;;;;;9.48;8.48;;;18.00;99.90;;;;;;4983587;28;20054;-50
2023/03/18 11:19:05;;;;;;;9.55;8.65;;;17.80;99.90;;;;;;4998409;28;20058;-51
2023/03/18 11:21:30;;;;;;;9.95;8.85;;;17.60;99.90;;;;;;4982106;28;20094;-51
2023/03/18 11:24:09;;;;;;;10.75;9.65;;;17.40;99.90;;;;;;4985605;28;20054;-50
2023/03/18 11:26:55;;;;;;;11.55;9.77;;;17.50;99.90;;;;;;4984373;28;20503;-54
2023/03/18 11:29:25;;;;;;;10.13;9.23;;;17.60;99.90;;;;;;4986636;28;20139;-55
2023/03/18 11:31:57;;;;;;;11.35;9.25;;;17.80;99.90;;;;;;4985322;28;20069;-52
2023/03/18 11:34:24;;;;;;;10.68;9.68;;;17.90;99.90;;;;;;4993625;28;20054;-51
2023/03/18 11:37:07;;;;;;;11.48;10.27;;;17.80;99.90;;;;;;4991937;28;20122;-54
2023/03/18 11:39:38;;;;;;;10.20;9.20;;;17.80;99.90;;;;;;4986123;28;20057;-52
2023/03/18 11:42:36;;;;;;;10.43;9.35;;;17.60;99.90;;;;;;4980565;28;20046;-55
2023/03/18 11:45:22;;;;;;;10.63;9.63;;;17.70;99.90;;;;;;4981082;28;20090;-53
2023/03/18 11:47:48;;;;;;;11.23;10.02;;;18.00;99.90;;;;;;4985922;28;20089;-53
2023/03/18 11:50:25;;;;;;;12.77;10.95;;;17.80;99.90;;;;;;4987270;28;20101;-54
2023/03/18 11:53:12;;;;;;;11.10;10.00;;;17.80;99.90;;;;;;4984400;28;20126;-53
2023/03/18 11:55:49;;;;;;;;;;;17.70;99.90;;;;;;4985242;28;20054;-52
2023/03/18 11:58:38;;;;;;;11.63;10.43;;;17.70;99.90;;;;;;4984924;28;19922;-50
2023/03/18 12:01:16;;;;;;;11.05;10.00;;;17.60;99.90;;;;;;4980786;28;20053;-54
2023/03/18 12:04:14;;;;;;;10.73;9.00;;;17.60;99.90;;;;;;4986351;28;20049;-51
2023/03/18 12:07:14;;;;;;;10.40;9.40;;;17.60;99.90;;;;;;4972054;28;20116;-50
2023/03/18 12:09:49;;;;;;;11.02;9.82;;;17.60;99.90;;;;;;4965550;28;20091;-50
2023/03/18 12:12:29;;;;;;;10.90;9.35;;;17.60;99.90;;;;;;4984737;28;20049;-50
2023/03/18 12:15:10;;;;;;;9.55;8.60;;;17.80;99.90;;;;;;4978802;28;20557;-53
2023/03/18 12:18:06;;;;;;;8.45;7.60;;;17.60;99.90;;;;;;4987666;28;20040;-49
2023/03/18 12:20:44;;;;;;;8.95;8.10;;;17.40;99.90;;;;;;4990971;28;20054;-50
2023/03/18 12:23:38;;;;;;;7.68;6.20;;;17.50;99.90;;;;;;4988522;28;20388;-52
2023/03/18 12:26:22;;;;;;;5.70;5.15;;;17.20;99.90;;;;;;5004993;28;20045;-50
2023/03/18 12:29:13;;;;;;;6.82;5.70;;;17.20;99.90;;;;;;5002494;28;20390;-49
2023/03/18 12:31:47;;;;;;;7.28;5.68;;;17.50;99.90;;;;;;4988246;28;20145;-50
2023/03/18 12:34:39;;;;;;;6.13;5.35;;;17.60;99.90;;;;;;4992348;28;20074;-49
2023/03/18 12:37:27;;;;;;;5.93;5.35;;;17.60;99.90;;;;;;4989810;28;20053;-50
2023/03/18 12:40:27;;;;;;;7.88;5.45;;;17.70;99.90;;;;;;4988752;28;20480;-49
2023/03/18 12:43:19;;;;;;;6.70;5.60;;;17.70;99.90;;;;;;4985585;28;20046;-51
2023/03/18 12:45:52;;;;;;;6.28;5.68;;;18.00;99.90;;;;;;4989065;28;20050;-51
2023/03/18 12:48:22;;;;;;;6.07;5.50;;;18.00;99.90;;;;;;4990107;28;20065;-50
2023/03/18 12:50:57;;;;;;;5.63;5.00;;;18.00;99.90;;;;;;4992511;28;20057;-51